Currently 82°F in French Valley, California, USA
82°F
82°F / 61°F
7 mph SW
0.00"
Wednesday, August 16, 2017 2:48 PM PDT

French Valley, California Weather Summary
Last 36 Hours

Temperature Winds Hourly Humidity Dewpoint
Time Report Norm Report Norm Max Gusts Precip. Rpt. Norm Rpt. Norm Pressure
1Wed 02:48 PM  82.4°F  91°F  7 mph SW  8 mph  11 mph  0.00"  40%  34%  55°F  57°F  30.00"
2Wed 02:45 PM  82.4°F  91°F  2 mph SW  7 mph  11 mph  ----  41%  34%  55°F  57°F  30.00"
Wed 02:00 PM  81.1°F  91°F  5 mph S  7 mph  13 mph  0.00"  39%  34%  53°F  57°F  30.03"
Wed 01:00 PM  77.8°F  90°F  4 mph SW  5 mph  12 mph  0.00"  41%  35%  51°F  57°F  30.05"
Wed 12:00 PM  74.9°F  88°F  7 mph S  4 mph  12 mph  0.00"  51%  37%  55°F  57°F  30.07"
Wed 11:00 AM  70.9°F  84°F  5 mph SE  2 mph  13 mph  0.00"  63%  43%  57°F  59°F  30.09"
Wed 10:00 AM  67.3°F  79°F  3 mph SW  2 mph  6 mph  0.00"  77%  54%  60°F  61°F  30.08"
Wed 09:00 AM  63.9°F  74°F  1 mph NW  1 mph  6 mph  0.00"  86%  65%  59°F  61°F  30.08"
Wed 08:00 AM  61.9°F  69°F  3 mph S  1 mph  5 mph  0.00"  90%  74%  59°F  60°F  30.08"
Wed 07:00 AM  61.7°F  65°F  calm  calm  6 mph  0.00"  92%  80%  59°F  59°F  30.07"
Wed 06:00 AM  61.3°F  65°F  calm  calm  5 mph  0.00"  94%  80%  60°F  58°F  30.05"
3Wed 05:14 AM  60.7°F  65°F  1 mph SE  calm  6 mph  ----  95%  79%  59°F  58°F  30.04"
Wed 05:00 AM  60.7°F  65°F  3 mph S  calm  7 mph  0.00"  95%  79%  59°F  58°F  30.04"
Wed 04:00 AM  61.2°F  66°F  4 mph S  calm  7 mph  0.00"  95%  78%  60°F  59°F  30.03"
Wed 03:00 AM  61.1°F  66°F  1 mph W  calm  6 mph  0.00"  95%  78%  60°F  59°F  30.03"
Wed 02:00 AM  61.8°F  67°F  1 mph S  calm  7 mph  0.00"  94%  77%  60°F  59°F  30.03"
Wed 01:00 AM  62.1°F  68°F  2 mph SW  calm  6 mph  0.00"  93%  76%  60°F  60°F  30.02"
Wed 12:00 AM  62.2°F  69°F  calm  calm  7 mph  0.00"  93%  74%  60°F  60°F  30.02"
Tue 11:00 PM  61.9°F  70°F  2 mph SE  1 mph  8 mph  0.00"  94%  71%  60°F  60°F  30.02"
Tue 10:00 PM  62.5°F  72°F  2 mph SW  1 mph  9 mph  0.00"  93%  69%  60°F  61°F  30.01"
Tue 09:00 PM  63.3°F  73°F  5 mph S  3 mph  12 mph  0.00"  91%  65%  60°F  61°F  29.98"
Tue 08:00 PM  64.3°F  76°F  5 mph SE  4 mph  13 mph  0.00"  87%  60%  60°F  60°F  29.97"
Tue 07:00 PM  68.0°F  80°F  6 mph S  7 mph  15 mph  0.00"  79%  50%  61°F  60°F  29.94"
Tue 06:00 PM  71.1°F  84°F  9 mph S  8 mph  18 mph  0.00"  73%  43%  62°F  59°F  29.94"
Tue 05:00 PM  73.9°F  87°F  8 mph S  8 mph  18 mph  0.00"  65%  38%  61°F  58°F  29.94"
Tue 04:00 PM  74.7°F  89°F  11 mph S  8 mph  17 mph  0.00"  65%  35%  62°F  57°F  29.95"
Tue 03:00 PM  76.8°F  90°F  9 mph S  8 mph  16 mph  0.00"  59%  33%  61°F  57°F  29.96"
Tue 02:00 PM  74.5°F  91°F  5 mph SW  7 mph  16 mph  0.00"  64%  33%  61°F  57°F  29.98"
Tue 01:00 PM  73.0°F  90°F  7 mph S  5 mph  12 mph  0.00"  68%  34%  62°F  57°F  29.99"
Tue 12:00 PM  71.3°F  88°F  4 mph SW  4 mph  11 mph  0.00"  72%  37%  61°F  57°F  30.01"
Tue 11:00 AM  66.4°F  84°F  3 mph S  2 mph  10 mph  0.00"  81%  44%  60°F  59°F  30.03"
Tue 10:00 AM  63.6°F  79°F  7 mph SW  2 mph  9 mph  0.00"  86%  54%  59°F  61°F  30.03"
Tue 09:00 AM  62.0°F  74°F  2 mph SE  1 mph  10 mph  0.00"  89%  66%  59°F  61°F  30.03"
Tue 08:00 AM  61.9°F  69°F  4 mph S  1 mph  8 mph  0.00"  91%  74%  59°F  60°F  30.02"
Tue 07:00 AM  61.9°F  65°F  calm  calm  6 mph  0.00"  91%  80%  59°F  58°F  30.01"
Tue 06:00 AM  62.0°F  64°F  calm  calm  8 mph  0.00"  91%  80%  59°F  58°F  30.00"
Tue 05:00 AM  61.5°F  65°F  3 mph S  calm  8 mph  0.00"  92%  80%  59°F  58°F  29.99"
Tue 04:00 AM  61.5°F  66°F  4 mph SE  calm  6 mph  0.00"  94%  79%  60°F  59°F  29.99"
Tue 03:00 AM  61.2°F  66°F  3 mph S  calm  7 mph  0.00"  95%  78%  60°F  59°F  29.99"

  1. Current weather data. No green row appears if the current weather data is also the high or low for the current day.
  2. High temperature for the current day.
  3. Low temperature for the current day.

The French Valley, California weather pages are a service of WeatherCurrents. French Valley is located in southwestern Riverside County, California, north of Temecula, east of Murrieta, and south of Winchester. French Valley is bordered by Lake Skinner.
Copyright ©Wed Aug 16 14:48:44 PDT 2017  WeatherCurrents. All rights reserved. - Submit questions and comments - Privacy Policy

This page automatically refreshes every 10 minutes.